Nearby METAR Reports

 

KRNT - Renton, Washington, USA
Distance from station: WNW 10mi, 17km
Updated: Sun, 20-Jan-2019 5:53am PST
Clear
Clear
 Wind from NNW
Wind: NNW 7 mph , 11 km/h
Temperature: 43°F , 6°C
Wind Chill: 39°F , 4°C
Dew Point: 39°F , 4°C
Humidity: 87%
Barometer: 29.95 inHg , 1014.2 hPa
Clouds: Clear
Visibility: 10 miles , 16 km
2019/01/20 13:53 KRNT 201353Z AUTO 34006KT 10SM CLR 06/04 A2995 RMK AO2 SLP147 T00560039 $
KSEA - Seattle/Metro, Washington, USA
Distance from station: W 14mi, 23km
Updated: Sun, 20-Jan-2019 5:53am PST
Overcast
Overcast
 Wind from N
Wind: N 12 mph , 19 km/h
Temperature: 43°F , 6°C
Wind Chill: 37°F , 3°C
Dew Point: 37°F , 3°C
Humidity: 81%
Barometer: 29.94 inHg , 1013.9 hPa
Clouds: Overcast
Visibility: 10 miles , 16 km
Cloud details: Overcast 15000 ft
2019/01/20 13:53 KSEA 201353Z 01010KT 10SM OVC150 06/03 A2994 RMK AO2 SLP146 T00560033 $
 
KBFI - Seattle/Boeing, Washington, USA
Distance from station: WNW 16mi, 26km
Updated: Sun, 20-Jan-2019 5:53am PST
Clear
Clear
 Wind from calm
Wind: Calm
Temperature: 43°F , 6°C
Dew Point: 37°F , 3°C
Humidity: 81%
Barometer: 29.96 inHg , 1014.6 hPa
Clouds: Clear
Visibility: 10 miles , 16 km
2019/01/20 13:53 KBFI 201353Z 00000KT 10SM CLR 06/03 A2996 RMK AO2 SLP144 T00560033
KPLU - Puyallup/Thun, Washington, USA
Distance from station: SSW 27mi, 43km
Updated: Sun, 20-Jan-2019 6:35am PST
Mist, Overcast
Mist, Overcast
 Wind from calm
Wind: Calm
Temperature: 37°F , 3°C
Dew Point: 37°F , 3°C
Humidity: 100%
Barometer: 29.92 inHg , 1013.2 hPa
Summary: Mist
Clouds: Overcast
Visibility: 4 miles , 6 km
Cloud details: Overcast 400 ft
2019/01/20 14:35 KPLU 201435Z AUTO 00000KT 4SM BR OVC004 03/03 A2992 RMK AO2
 
KTIW - Tacoma, Washington, USA
Distance from station: WSW 29mi, 47km
Updated: Sun, 20-Jan-2019 6:40am PST
Mostly cloudy
Mostly cloudy
 Wind from N
Wind: N 9 mph , 15 km/h
Temperature: 41°F , 5°C
Wind Chill: 35°F , 2°C
Dew Point: 39°F , 4°C
Humidity: 93%
Barometer: 29.92 inHg , 1013.2 hPa
Clouds: Mostly cloudy
Visibility: 10 miles , 16 km
Cloud details: Mostly cloudy 500 ft
2019/01/20 14:40 KTIW 201440Z AUTO 36008KT 10SM BKN005 05/04 A2992 RMK AO2 T00500039
KTCM - Tacoma/Mc Chord, Washington, USA
Distance from station: SW 31mi, 50km
Updated: Sun, 20-Jan-2019 6:18am PST
Mist, Overcast
Mist, Overcast
 Wind from calm
Wind: Calm
Temperature: 37°F , 3°C
Dew Point: 37°F , 3°C
Humidity: 100%
Barometer: 29.93 inHg , 1013.5 hPa
Summary: Mist
Clouds: Overcast
Visibility: 4 miles , 6 km
Cloud details: Overcast 700 ft
2019/01/20 14:18 KTCM 201418Z 00000KT 4SM BR OVC007 03/03 A2993 RMK AO2A CIG 005 RWY34 SLP141 $
 
KPAE - Everett, Washington, USA
Distance from station: NNW 35mi, 56km
Updated: Sun, 20-Jan-2019 5:53am PST
Few Clouds
Few Clouds
 Wind from NNW
Wind: NNW 7 mph , 11 km/h
Temperature: 39°F , 4°C
Wind Chill: 34°F , 1°C
Dew Point: 37°F , 3°C
Humidity: 93%
Barometer: 29.96 inHg , 1014.6 hPa
Clouds: Few Clouds
Visibility: 10 miles , 16 km
Cloud details: Few Clouds 300 ft
2019/01/20 13:53 KPAE 201353Z AUTO 33006KT 10SM FEW003 04/03 A2996 RMK AO2 SLP147 T00440033
KPWT - Bremerton Ntnl, Washington, USA
Distance from station: W 35mi, 56km
Updated: Sun, 20-Jan-2019 6:20am PST
Few Clouds
Few Clouds
 Wind from NNE
Wind: NNE 7 mph , 11 km/h
Temperature: 39°F , 4°C
Wind Chill: 34°F , 1°C
Dew Point: 37°F , 3°C
Humidity: 93%
Barometer: 29.94 inHg , 1013.9 hPa
Clouds: Few Clouds
Visibility: 10 miles , 16 km
Cloud details: Few Clouds 700 ft
2019/01/20 14:20 KPWT 201420Z AUTO 02006KT 10SM FEW007 04/03 A2994 RMK AO2
 
KGRF - Fort Lewis/Gray, Washington, USA
Distance from station: SW 37mi, 59km
Updated: Sun, 20-Jan-2019 6:38am PST
Mist, Overcast
Mist, Overcast
 Wind from W
Wind: W 3 mph , 6 km/h
Temperature: 39°F , 4°C
Barometer: 29.92 inHg , 1013.2 hPa
Summary: Mist
Clouds: Overcast
Visibility: 5 miles , 8 km
Cloud details: Overcast 600 ft
2019/01/20 14:38 KGRF 201438Z AUTO 28003KT 5SM BR OVC006 04/ A2992 RMK AO2 SLP138 $